createdAt,value
2023-02-16T00:01:26.477Z,29.50
2023-02-16T00:04:04.369Z,29.63
2023-02-16T00:06:43.317Z,28.97
2023-02-16T00:09:16.189Z,33.17
2023-02-16T00:12:19.749Z,26.10
2023-02-16T00:15:08.206Z,29.17
2023-02-16T00:17:45.676Z,25.97
2023-02-16T00:20:23.368Z,27.50
2023-02-16T00:23:08.051Z,27.53
2023-02-16T00:25:36.938Z,29.93
2023-02-16T00:28:14.187Z,33.87
2023-02-16T00:30:43.034Z,29.97
2023-02-16T00:33:16.854Z,31.53
2023-02-16T00:35:45.976Z,26.23
2023-02-16T00:38:14.584Z,29.20
2023-02-16T00:40:43.947Z,29.37
2023-02-16T00:43:28.130Z,29.10
2023-02-16T00:45:56.927Z,29.43
2023-02-16T00:48:25.824Z,30.93
2023-02-16T00:50:53.889Z,31.00
2023-02-16T00:53:22.125Z,32.93
2023-02-16T00:55:50.464Z,32.33
2023-02-16T00:58:25.740Z,32.70
2023-02-16T01:00:56.499Z,33.87
2023-02-16T01:03:27.052Z,33.83
2023-02-16T01:06:09.009Z,32.30
2023-02-16T01:08:55.938Z,31.20
2023-02-16T01:11:25.616Z,29.37
2023-02-16T01:13:58.890Z,33.80
2023-02-16T01:16:34.665Z,33.77
2023-02-16T01:19:04.679Z,32.83
2023-02-16T01:21:32.833Z,34.90
2023-02-16T01:24:00.914Z,34.13
2023-02-16T01:26:28.978Z,34.63
2023-02-16T01:28:58.773Z,35.67
2023-02-16T01:31:26.872Z,41.70
2023-02-16T01:33:55.168Z,37.57
2023-02-16T01:36:26.506Z,36.67
2023-02-16T01:38:54.813Z,34.90
2023-02-16T01:41:36.219Z,38.23
2023-02-16T01:44:11.168Z,39.10
2023-02-16T01:46:45.250Z,40.97
2023-02-16T01:49:14.473Z,34.13
2023-02-16T01:51:52.652Z,40.00
2023-02-16T01:54:39.752Z,37.43
2023-02-16T01:57:22.305Z,39.00
2023-02-16T02:00:19.293Z,39.73
2023-02-16T02:02:53.574Z,39.57
2023-02-16T02:05:37.712Z,40.13
2023-02-16T02:08:16.138Z,43.20
2023-02-16T02:10:54.444Z,41.20
2023-02-16T02:13:28.082Z,37.47
2023-02-16T02:16:00.573Z,36.70
2023-02-16T02:18:28.807Z,42.23
2023-02-16T02:21:34.629Z,36.87
2023-02-16T02:24:28.122Z,37.87
2023-02-16T02:27:21.954Z,43.70
2023-02-16T02:30:10.468Z,37.17
2023-02-16T02:33:07.651Z,39.30
2023-02-16T02:35:48.565Z,41.93
2023-02-16T02:38:23.557Z,39.10
2023-02-16T02:41:01.216Z,40.00
2023-02-16T02:43:38.479Z,41.47
2023-02-16T02:46:11.000Z,38.33
2023-02-16T02:48:39.320Z,41.53
2023-02-16T02:51:31.175Z,45.03
2023-02-16T02:54:21.251Z,41.93
2023-02-16T02:57:10.989Z,37.37
2023-02-16T03:00:00.095Z,40.50
2023-02-16T03:02:29.954Z,46.20
2023-02-16T03:05:00.737Z,41.73
2023-02-16T03:07:43.567Z,41.73
2023-02-16T03:10:32.118Z,43.50
2023-02-16T03:13:03.709Z,36.03
2023-02-16T03:15:34.912Z,38.37
2023-02-16T03:18:23.812Z,36.87
2023-02-16T03:21:09.554Z,42.27
2023-02-16T03:23:56.612Z,40.80
2023-02-16T03:26:44.316Z,39.17
2023-02-16T03:29:22.472Z,37.60
2023-02-16T03:31:55.811Z,39.90
2023-02-16T03:34:24.791Z,41.50
2023-02-16T03:36:58.627Z,42.13
2023-02-16T03:39:31.015Z,38.33
2023-02-16T03:41:59.920Z,38.80
2023-02-16T03:44:28.295Z,39.17
2023-02-16T03:47:01.411Z,37.93
2023-02-16T03:49:29.836Z,39.63
2023-02-16T03:51:58.512Z,36.77
2023-02-16T03:54:26.898Z,39.60
2023-02-16T03:56:55.718Z,37.23
2023-02-16T03:59:23.862Z,38.73
2023-02-16T04:01:55.332Z,39.40
2023-02-16T04:04:25.861Z,36.43
2023-02-16T04:06:54.197Z,38.50
2023-02-16T04:09:22.448Z,40.17
2023-02-16T04:12:14.185Z,40.00
2023-02-16T04:14:43.760Z,37.63
2023-02-16T04:17:12.224Z,38.23
2023-02-16T04:19:42.538Z,34.63
2023-02-16T04:22:10.794Z,38.20
2023-02-16T04:24:39.103Z,36.30
2023-02-16T04:27:07.696Z,36.30
2023-02-16T04:29:40.678Z,36.70
2023-02-16T04:32:09.447Z,39.50
2023-02-16T04:34:40.674Z,37.40
2023-02-16T04:37:10.389Z,34.87
2023-02-16T04:39:39.206Z,34.23
2023-02-16T04:42:09.307Z,38.30
2023-02-16T04:44:37.795Z,38.73
2023-02-16T04:47:06.691Z,37.63
2023-02-16T04:49:35.178Z,36.90
2023-02-16T04:52:04.293Z,37.00
2023-02-16T04:54:34.564Z,34.53
2023-02-16T04:57:03.452Z,36.70
2023-02-16T04:59:34.806Z,35.90
2023-02-16T05:02:03.346Z,43.87
2023-02-16T05:04:31.848Z,38.77
2023-02-16T05:07:00.181Z,36.43
2023-02-16T05:09:28.341Z,40.00
2023-02-16T05:12:15.510Z,37.17
2023-02-16T05:14:45.145Z,32.50
2023-02-16T05:17:16.619Z,37.37
2023-02-16T05:19:52.284Z,35.53
2023-02-16T05:22:21.033Z,36.63
2023-02-16T05:24:49.373Z,34.40
2023-02-16T05:27:21.115Z,39.40
2023-02-16T05:29:49.430Z,33.43
2023-02-16T05:32:18.359Z,36.13
2023-02-16T05:34:46.658Z,39.60
2023-02-16T05:37:16.141Z,36.90
2023-02-16T05:39:44.544Z,35.33
2023-02-16T05:42:13.220Z,38.50
2023-02-16T05:44:43.557Z,34.77
2023-02-16T05:47:12.056Z,36.43
2023-02-16T05:49:40.612Z,34.20
2023-02-16T05:52:09.117Z,35.90
2023-02-16T05:54:39.219Z,33.10
2023-02-16T05:57:53.021Z,34.30
2023-02-16T06:00:36.590Z,35.60
2023-02-16T06:03:56.644Z,32.30
2023-02-16T06:06:25.792Z,34.90
2023-02-16T06:08:54.017Z,36.93
2023-02-16T06:11:37.201Z,39.63
2023-02-16T06:14:14.049Z,38.47
2023-02-16T06:16:45.848Z,37.23
2023-02-16T06:19:16.300Z,36.70
2023-02-16T06:21:45.575Z,38.77
2023-02-16T06:24:15.081Z,39.70
2023-02-16T06:27:06.213Z,36.97
2023-02-16T06:29:34.416Z,37.07
2023-02-16T06:32:04.305Z,38.87
2023-02-16T06:39:54.048Z,41.40
2023-02-16T06:42:24.940Z,36.20
2023-02-16T06:44:53.592Z,38.77
2023-02-16T06:47:23.164Z,37.30
2023-02-16T06:49:51.472Z,36.73
2023-02-16T06:52:19.695Z,37.43
2023-02-16T06:54:47.819Z,40.83
2023-02-16T06:57:15.886Z,35.80
2023-02-16T06:59:44.008Z,39.63
2023-02-16T07:02:12.904Z,39.90
2023-02-16T07:04:42.762Z,43.90
2023-02-16T07:07:11.330Z,42.97
2023-02-16T07:09:42.877Z,45.40
2023-02-16T07:12:11.149Z,42.40
2023-02-16T07:14:39.298Z,40.03
2023-02-16T07:17:07.701Z,43.20
2023-02-16T07:19:35.956Z,42.63
2023-02-16T07:22:05.535Z,41.80
2023-02-16T07:24:33.778Z,41.07
2023-02-16T07:27:01.972Z,39.83
2023-02-16T07:29:30.555Z,38.33
2023-02-16T07:31:59.317Z,43.30
2023-02-16T07:34:27.590Z,43.50
2023-02-16T07:36:55.805Z,42.83
2023-02-16T07:39:25.748Z,40.73
2023-02-16T07:41:53.927Z,45.50
2023-02-16T07:44:22.178Z,43.00
2023-02-16T07:46:50.415Z,42.30
2023-02-16T07:49:18.544Z,42.70
2023-02-16T07:51:46.805Z,43.10
2023-02-16T07:54:15.007Z,43.60
2023-02-16T07:56:44.770Z,43.40
2023-02-16T07:59:16.632Z,47.57
2023-02-16T08:01:45.200Z,40.60
2023-02-16T08:04:13.542Z,42.73
2023-02-16T08:06:41.886Z,38.37
2023-02-16T08:09:10.071Z,40.87
2023-02-16T08:11:38.589Z,40.10
2023-02-16T08:14:08.464Z,44.93
2023-02-16T08:16:36.669Z,41.40
2023-02-16T08:19:05.130Z,41.30
2023-02-16T08:21:34.775Z,41.63
2023-02-16T08:24:04.510Z,42.63
2023-02-16T08:26:38.728Z,41.67
2023-02-16T08:29:12.805Z,45.27
2023-02-16T08:31:41.832Z,43.73
2023-02-16T08:34:11.405Z,42.57
2023-02-16T08:36:43.322Z,42.50
2023-02-16T08:39:15.034Z,40.80
2023-02-16T08:41:45.771Z,40.03
2023-02-16T08:44:17.365Z,43.13
2023-02-16T08:46:47.607Z,42.60
2023-02-16T08:49:18.711Z,45.30
2023-02-16T08:51:48.638Z,43.57
2023-02-16T08:54:18.813Z,40.83
2023-02-16T08:56:49.835Z,44.57
2023-02-16T08:59:22.696Z,39.17
2023-02-16T09:01:53.663Z,41.30
2023-02-16T09:04:22.073Z,43.53
2023-02-16T09:06:50.540Z,38.60
2023-02-16T09:09:19.376Z,40.10
2023-02-16T09:11:48.145Z,39.20
2023-02-16T09:14:17.157Z,37.63
2023-02-16T09:16:49.575Z,40.70
2023-02-16T09:19:24.872Z,40.43
2023-02-16T09:21:56.565Z,47.30
2023-02-16T09:24:25.467Z,37.23
2023-02-16T09:26:53.969Z,42.53
2023-02-16T09:29:23.087Z,42.37
2023-02-16T09:31:53.104Z,41.10
2023-02-16T09:34:23.841Z,41.17
2023-02-16T09:36:52.844Z,41.00
2023-02-16T09:39:21.755Z,41.77
2023-02-16T09:42:03.691Z,37.67
2023-02-16T09:44:49.373Z,39.43
2023-02-16T09:47:24.344Z,41.73
2023-02-16T09:49:56.912Z,41.50
2023-02-16T09:52:33.136Z,40.63
2023-02-16T09:55:09.308Z,42.33
2023-02-16T09:57:55.669Z,41.97
2023-02-16T10:00:40.176Z,40.47
2023-02-16T10:03:23.802Z,41.87
2023-02-16T10:06:01.197Z,41.97
2023-02-16T10:08:34.234Z,38.43
2023-02-16T10:11:28.665Z,39.73
2023-02-16T10:14:00.660Z,44.00
2023-02-16T10:16:37.442Z,42.40
2023-02-16T10:19:18.173Z,40.50
2023-02-16T10:21:51.427Z,43.57
2023-02-16T10:24:20.400Z,38.90
2023-02-16T10:26:53.410Z,38.70
2023-02-16T10:29:24.081Z,45.03
2023-02-16T10:32:01.982Z,43.53
2023-02-16T10:34:46.507Z,42.67
2023-02-16T10:37:30.341Z,41.63
2023-02-16T10:40:26.015Z,39.80
2023-02-16T10:43:00.044Z,40.00
2023-02-16T10:45:34.535Z,45.00
2023-02-16T10:48:02.944Z,41.50
2023-02-16T10:50:40.656Z,38.80
2023-02-16T10:53:15.632Z,45.40
2023-02-16T10:55:46.998Z,44.13
2023-02-16T10:58:24.735Z,41.90
2023-02-16T11:00:59.412Z,41.47
2023-02-16T11:03:34.767Z,43.03
2023-02-16T11:06:16.715Z,41.77
2023-02-16T11:08:58.057Z,39.43
2023-02-16T11:11:27.599Z,40.60
2023-02-16T11:14:03.554Z,43.93
2023-02-16T11:16:35.859Z,43.67
2023-02-16T11:26:36.682Z,42.33
2023-02-16T11:29:18.815Z,40.67
2023-02-16T11:31:48.449Z,42.70
2023-02-16T11:34:33.633Z,43.60
2023-02-16T11:37:05.333Z,40.47
2023-02-16T11:39:38.988Z,40.53
2023-02-16T11:42:09.994Z,42.37
2023-02-16T11:44:40.187Z,42.50
2023-02-16T11:47:11.167Z,42.07
2023-02-16T11:49:41.479Z,42.97
2023-02-16T11:52:26.368Z,42.27
2023-02-16T11:54:57.978Z,42.00
2023-02-16T11:57:31.380Z,39.07
2023-02-16T12:00:05.598Z,43.00
2023-02-16T12:03:10.942Z,43.00
2023-02-16T12:09:11.629Z,44.27
2023-02-16T12:12:00.007Z,44.80
2023-02-16T12:14:44.979Z,43.20
2023-02-16T12:17:35.423Z,46.50
2023-02-16T12:20:15.674Z,43.00
2023-02-16T12:22:48.583Z,45.03
2023-02-16T12:25:35.102Z,49.67
2023-02-16T12:28:13.861Z,54.37
2023-02-16T12:31:10.091Z,47.50
2023-02-16T12:33:53.066Z,48.80
2023-02-16T12:36:47.222Z,47.23
2023-02-16T12:39:22.140Z,47.97
2023-02-16T12:42:04.915Z,47.90
2023-02-16T18:55:33.079Z,43.27
2023-02-16T18:58:15.403Z,38.90
2023-02-16T19:01:44.001Z,42.77
2023-02-16T19:04:23.913Z,37.63
2023-02-16T19:07:15.239Z,46.43
2023-02-16T19:10:27.111Z,43.50
2023-02-16T19:13:05.642Z,42.20
2023-02-16T19:16:22.568Z,40.10
2023-02-16T19:18:55.163Z,42.90
2023-02-16T19:22:27.215Z,38.23
2023-02-16T19:25:37.793Z,45.17
2023-02-16T19:28:30.308Z,43.87
2023-02-16T19:31:56.269Z,41.27
2023-02-16T19:34:50.460Z,41.70
2023-02-16T19:37:31.212Z,42.67
2023-02-16T20:11:58.559Z,51.70
2023-02-16T20:30:21.624Z,54.97
2023-02-16T20:33:27.846Z,53.40
2023-02-16T20:36:35.087Z,49.87
2023-02-16T20:39:08.332Z,52.43
2023-02-16T20:41:45.669Z,50.83
2023-02-16T20:44:19.636Z,58.13
2023-02-16T20:46:56.925Z,55.33
2023-02-16T20:49:34.298Z,53.47
2023-02-16T20:52:12.434Z,57.50
2023-02-16T20:54:49.825Z,60.87
2023-02-16T20:57:27.302Z,56.97
2023-02-16T20:59:56.478Z,62.50
2023-02-16T21:02:26.315Z,55.97
2023-02-16T21:04:57.356Z,60.50
2023-02-16T21:07:31.559Z,59.63
2023-02-16T21:10:05.783Z,57.57
2023-02-16T21:12:35.814Z,56.10
2023-02-16T21:15:09.424Z,54.70
2023-02-16T21:17:47.464Z,56.13
2023-02-16T21:20:31.456Z,52.50
2023-02-16T21:23:04.791Z,54.80
2023-02-16T21:25:42.656Z,52.03
2023-02-16T21:28:23.051Z,51.40
2023-02-16T21:31:13.252Z,51.20
2023-02-16T21:33:48.195Z,51.30
2023-02-16T21:36:22.859Z,54.80
2023-02-16T21:39:47.231Z,51.23
2023-02-16T21:42:27.197Z,49.77
2023-02-16T21:45:23.919Z,51.17
2023-02-16T21:48:24.474Z,51.27
2023-02-16T21:50:53.994Z,47.30
2023-02-16T21:53:31.865Z,49.63
2023-02-16T21:56:18.482Z,48.50
2023-02-16T21:58:53.558Z,50.33
2023-02-16T22:01:31.885Z,50.13
2023-02-16T22:04:05.094Z,52.77
2023-02-16T22:06:39.648Z,49.90
2023-02-16T22:09:19.555Z,49.77
2023-02-16T22:12:06.541Z,49.60
2023-02-16T22:14:39.125Z,47.57
2023-02-16T22:17:15.581Z,49.30
2023-02-16T22:19:47.047Z,48.23
2023-02-16T22:22:26.641Z,47.67
2023-02-16T22:25:04.180Z,48.83
2023-02-16T22:27:46.112Z,47.60
2023-02-16T22:30:17.903Z,46.57
2023-02-16T22:32:48.954Z,43.53
2023-02-16T22:35:35.712Z,42.70
2023-02-16T22:38:10.663Z,43.77
2023-02-16T22:40:52.261Z,42.80
2023-02-16T22:43:37.847Z,43.63
2023-02-16T22:46:13.595Z,42.57
2023-02-16T22:48:48.986Z,41.50
2023-02-16T22:51:19.581Z,42.27
2023-02-16T22:53:58.666Z,42.27
2023-02-16T22:56:32.941Z,43.07
2023-02-16T22:59:10.351Z,42.70
2023-02-16T23:01:54.725Z,42.83
2023-02-16T23:04:34.719Z,42.93
2023-02-16T23:07:11.046Z,44.50
2023-02-16T23:10:04.066Z,42.73
2023-02-16T23:12:40.354Z,41.70
2023-02-16T23:18:28.094Z,42.27
2023-02-16T23:24:29.081Z,39.30
2023-02-16T23:33:38.892Z,39.43
2023-02-16T23:36:19.186Z,38.80
2023-02-16T23:42:53.679Z,38.00
2023-02-16T23:45:47.780Z,36.50
2023-02-16T23:49:08.115Z,39.47
